Disclaimer

Please do not use the information listed here in-flight or in-navigation, as they are not provided to us by the airports but are provided by volunteers, so they might be outdated.

Search


Regions


Airport information page

No radio frequency information is available.

Airport informations:
Latitude: 19° 33' 47.69" S
Longitude: 046° 57' 37.29" W
Elevation: 3276 feet - 999 meters
Operating hours: From sunrise to sunset (SR-SS)
Operating agency: Civil government, landing fees and diplomatic clearance may be required
Timezone: UTC-3(-2DT)
Fuel: Jet A1, without icing nhibitor.

100/130 octane gasoline, leaded, MIL-L-5572F (GREEN)

Runway information:
15/33 - 6234 x 98 feet< - >1900 x 30 meters

Recent METARs:
SBAX 211000Z 34004KT 1000 -DZ BR BKN003 OVC012 19/19 Q1020
SBAX 211000Z 34004KT 1000 -DZ BR BKN003 OVC012 19/19 Q1020

Airport on the map: